Time;durP1;ratioP1;P1;durP2;ratioP2;P2;SDS_P1;SDS_P2;PMS_P1;PMS_P2;Temp;Humidity;BMP_temperature;BMP_pressure;BME280_temperature;BME280_humidity;BME280_pressure;Samples;Min_cycle;Max_cycle;Signal;HPM_P1;HPM_P2
2021/10/01 00:01:09;;;;;;;7.00;4.60;;;11.80;94.60;;;;;;5024847;28;20030;-61
2021/10/01 00:03:34;;;;;;;7.72;4.30;;;11.70;94.60;;;;;;5023208;28;20033;-60
2021/10/01 00:06:00;;;;;;;10.45;4.30;;;11.80;94.60;;;;;;5023551;28;20032;-61
2021/10/01 00:08:25;;;;;;;8.02;3.67;;;11.80;94.40;;;;;;5024918;28;20044;-61
2021/10/01 00:10:51;;;;;;;14.32;9.35;;;11.90;94.40;;;;;;5022509;28;20030;-61
2021/10/01 00:13:17;;;;;;;16.95;9.63;;;11.80;94.40;;;;;;5023771;28;20374;-61
2021/10/01 00:15:44;;;;;;;8.98;6.30;;;11.80;94.50;;;;;;5023156;28;20188;-61
2021/10/01 00:18:11;;;;;;;8.45;5.10;;;11.80;94.30;;;;;;5023155;28;20516;-61
2021/10/01 00:20:37;;;;;;;10.05;5.32;;;11.80;94.30;;;;;;5023876;28;20036;-61
2021/10/01 00:23:02;;;;;;;5.35;4.30;;;11.90;94.40;;;;;;5024087;28;20049;-60
2021/10/01 00:25:28;;;;;;;5.00;3.90;;;11.90;94.40;;;;;;5021923;28;20430;-59
2021/10/01 00:27:54;;;;;;;6.28;4.22;;;11.80;94.30;;;;;;5025403;28;20481;-59
2021/10/01 00:30:19;;;;;;;5.18;3.85;;;11.70;94.50;;;;;;5023368;28;20204;-59
2021/10/01 00:32:45;;;;;;;4.38;3.88;;;11.60;94.60;;;;;;5024003;28;20048;-60
2021/10/01 00:35:11;;;;;;;6.13;4.00;;;11.60;94.60;;;;;;5019907;28;20030;-59
2021/10/01 00:37:36;;;;;;;5.38;4.20;;;11.60;94.70;;;;;;5023995;28;20520;-60
2021/10/01 00:40:03;;;;;;;5.57;4.00;;;11.50;94.70;;;;;;5024222;28;20042;-60
2021/10/01 00:42:28;;;;;;;5.03;4.20;;;11.50;94.70;;;;;;5021536;28;20029;-60
2021/10/01 00:44:54;;;;;;;9.13;4.55;;;11.50;94.70;;;;;;5022731;28;20542;-59
2021/10/01 00:47:20;;;;;;;6.60;4.82;;;11.50;94.70;;;;;;5024009;28;20394;-60
2021/10/01 00:49:45;;;;;;;4.93;4.22;;;11.40;94.80;;;;;;5022473;28;20164;-61
2021/10/01 00:52:12;;;;;;;6.07;4.40;;;11.30;95.00;;;;;;5022378;28;20030;-59
2021/10/01 00:54:37;;;;;;;7.10;4.53;;;11.30;95.10;;;;;;5021374;28;20037;-61
2021/10/01 00:57:04;;;;;;;5.60;4.10;;;11.20;95.00;;;;;;5023833;28;20045;-60
2021/10/01 00:59:30;;;;;;;6.85;5.03;;;11.20;95.00;;;;;;5023034;28;20491;-60
2021/10/01 01:01:56;;;;;;;5.45;4.13;;;11.20;95.20;;;;;;5022197;28;20037;-60
2021/10/01 01:04:22;;;;;;;6.57;4.18;;;11.20;95.20;;;;;;5022218;28;20030;-61
2021/10/01 01:07:18;;;;;;;6.78;4.55;;;11.20;95.20;;;;;;5021962;28;20018;-60
2021/10/01 01:09:53;;;;;;;7.30;4.40;;;11.20;95.20;;;;;;5024961;28;20063;-60
2021/10/01 01:12:43;;;;;;;7.00;4.00;;;11.10;95.30;;;;;;5022617;28;20030;-62
2021/10/01 01:15:16;;;;;;;7.95;4.35;;;11.20;95.30;;;;;;5023499;28;20053;-60
2021/10/01 01:17:42;;;;;;;5.72;4.20;;;11.20;95.20;;;;;;5023061;28;20034;-58
2021/10/01 01:20:09;;;;;;;8.13;4.88;;;11.10;95.30;;;;;;5019848;28;20120;-60
2021/10/01 01:22:56;;;;;;;9.18;5.40;;;11.10;95.30;;;;;;5021273;28;20492;-60
2021/10/01 01:25:30;;;;;;;6.07;4.22;;;11.10;95.30;;;;;;5023144;28;20026;-61
2021/10/01 01:28:11;;;;;;;8.52;4.72;;;11.10;95.30;;;;;;5024152;28;20061;-60
2021/10/01 01:30:44;;;;;;;6.65;4.82;;;11.10;95.30;;;;;;5022020;28;20500;-60
2021/10/01 01:33:15;;;;;;;6.50;4.35;;;11.00;95.40;;;;;;5021306;28;20504;-59
2021/10/01 01:35:42;;;;;;;7.47;4.65;;;11.00;95.60;;;;;;5024553;28;20029;-59
2021/10/01 01:38:14;;;;;;;8.50;4.68;;;10.90;95.50;;;;;;5022054;28;20057;-61
2021/10/01 01:40:44;;;;;;;11.68;4.80;;;10.90;95.60;;;;;;5021951;28;20033;-61
2021/10/01 01:43:11;;;;;;;6.03;4.45;;;10.90;95.70;;;;;;5020506;28;20026;-59
2021/10/01 01:45:39;;;;;;;8.20;4.10;;;10.90;95.50;;;;;;5019694;28;20030;-59
2021/10/01 01:48:08;;;;;;;6.28;3.85;;;11.00;95.50;;;;;;5021142;28;20396;-60
2021/10/01 01:50:34;;;;;;;6.93;4.30;;;11.00;95.50;;;;;;5023394;28;20091;-60
2021/10/01 01:53:01;;;;;;;6.95;4.38;;;10.90;95.50;;;;;;5019191;28;20408;-61
2021/10/01 01:55:29;;;;;;;6.93;4.85;;;10.80;95.60;;;;;;5022184;28;20530;-61
2021/10/01 01:57:56;;;;;;;7.57;4.50;;;10.80;95.70;;;;;;5019786;28;20374;-59
2021/10/01 02:00:22;;;;;;;5.20;4.20;;;10.80;95.60;;;;;;5021212;28;20040;-60
2021/10/01 02:02:50;;;;;;;6.97;3.92;;;10.80;95.70;;;;;;5021379;28;20045;-59
2021/10/01 02:05:16;;;;;;;5.90;4.10;;;10.80;95.60;;;;;;5020780;28;20037;-59
2021/10/01 02:07:43;;;;;;;8.25;4.57;;;10.80;95.70;;;;;;5004010;28;20065;-59
2021/10/01 02:10:10;;;;;;;5.80;4.20;;;10.70;95.70;;;;;;5022574;28;20591;-60
2021/10/01 02:12:38;;;;;;;7.65;4.82;;;10.70;95.70;;;;;;5019305;28;20045;-61
2021/10/01 02:15:05;;;;;;;6.47;4.32;;;10.70;95.70;;;;;;5016210;28;20030;-61
2021/10/01 02:17:34;;;;;;;15.55;4.72;;;10.60;95.70;;;;;;5011471;28;20038;-60
2021/10/01 02:20:01;;;;;;;7.72;4.18;;;10.60;95.80;;;;;;5013377;28;20069;-61
2021/10/01 02:22:28;;;;;;;7.00;4.75;;;10.60;95.70;;;;;;5030568;28;20033;-61
2021/10/01 02:24:54;;;;;;;6.65;4.63;;;10.60;95.80;;;;;;5031816;28;20064;-61
2021/10/01 02:27:42;;;;;;;5.47;4.32;;;10.60;95.80;;;;;;5032282;28;20041;-61
2021/10/01 02:30:12;;;;;;;5.60;4.22;;;10.60;96.00;;;;;;5031914;28;20029;-61
2021/10/01 02:32:44;;;;;;;7.95;4.50;;;10.60;95.80;;;;;;5030826;28;20061;-61
2021/10/01 02:35:10;;;;;;;7.05;4.55;;;10.60;95.70;;;;;;5030717;28;20017;-60
2021/10/01 02:37:36;;;;;;;6.78;4.57;;;10.60;95.70;;;;;;5046687;28;20033;-61
2021/10/01 02:40:04;;;;;;;6.97;4.25;;;10.70;95.60;;;;;;5031323;28;20041;-61
2021/10/01 02:42:30;;;;;;;7.80;4.68;;;10.70;95.50;;;;;;5029854;28;20092;-61
2021/10/01 02:44:57;;;;;;;7.47;4.45;;;10.70;95.60;;;;;;5032173;28;20060;-60
2021/10/01 02:47:31;;;;;;;7.65;4.53;;;10.70;95.50;;;;;;5047281;28;20048;-61
2021/10/01 02:49:58;;;;;;;;;;;10.70;95.50;;;;;;5032058;28;20026;-60
2021/10/01 02:52:32;;;;;;;8.75;4.70;;;10.70;95.60;;;;;;5031245;28;20465;-60
2021/10/01 02:55:15;;;;;;;7.68;4.50;;;10.60;95.70;;;;;;5031712;28;20045;-60
2021/10/01 02:57:59;;;;;;;5.45;4.45;;;10.50;95.70;;;;;;5031494;28;20026;-60
2021/10/01 03:00:25;;;;;;;6.55;4.68;;;10.50;95.70;;;;;;5031007;28;20025;-60
2021/10/01 03:02:53;;;;;;;12.52;7.45;;;10.50;95.80;;;;;;5031348;28;20405;-60
2021/10/01 03:05:21;;;;;;;7.75;5.07;;;10.50;95.80;;;;;;5031228;28;20036;-60
2021/10/01 03:07:47;;;;;;;7.75;4.47;;;10.40;95.90;;;;;;5031519;28;20037;-59
2021/10/01 03:10:14;;;;;;;9.18;4.60;;;10.40;95.90;;;;;;5029886;28;20034;-60
2021/10/01 03:12:43;;;;;;;8.85;4.78;;;10.50;95.90;;;;;;5030615;28;20087;-60
2021/10/01 03:15:10;;;;;;;9.70;4.70;;;10.40;95.70;;;;;;5031671;28;20496;-61
2021/10/01 03:17:38;;;;;;;6.10;4.32;;;10.40;95.70;;;;;;5032006;28;20144;-60
2021/10/01 03:20:04;;;;;;;7.07;4.55;;;10.30;95.80;;;;;;5030084;28;20036;-58
2021/10/01 03:22:33;;;;;;;7.47;5.70;;;10.40;95.70;;;;;;5014046;28;20048;-59
2021/10/01 03:25:00;;;;;;;7.47;4.78;;;10.30;95.60;;;;;;5015896;28;20126;-60
2021/10/01 03:27:31;;;;;;;6.28;4.57;;;10.40;95.50;;;;;;5016002;28;20129;-60
2021/10/01 03:30:06;;;;;;;7.07;5.25;;;10.40;95.60;;;;;;5015161;28;20087;-60
2021/10/01 03:32:31;;;;;;;5.53;4.32;;;10.30;95.50;;;;;;5015341;28;20436;-60
2021/10/01 03:35:01;;;;;;;7.22;4.45;;;10.40;95.50;;;;;;5016579;28;20050;-59
2021/10/01 03:37:27;;;;;;;10.80;4.60;;;10.30;95.50;;;;;;5034855;28;20033;-60
2021/10/01 03:40:06;;;;;;;8.18;5.40;;;10.20;95.60;;;;;;5035037;28;20366;-60
2021/10/01 03:42:31;;;;;;;5.82;4.60;;;10.20;95.50;;;;;;5050280;28;20033;-60
2021/10/01 03:44:57;;;;;;;9.55;4.80;;;10.30;95.40;;;;;;5035611;28;20381;-58
2021/10/01 03:47:23;;;;;;;7.30;4.82;;;10.30;95.50;;;;;;5049885;28;20060;-59
2021/10/01 03:49:49;;;;;;;8.70;5.63;;;10.40;95.30;;;;;;5034908;28;20374;-61
2021/10/01 03:52:15;;;;;;;14.52;8.77;;;10.40;95.20;;;;;;5030333;28;20532;-59
2021/10/01 03:54:44;;;;;;;7.97;6.50;;;10.40;95.20;;;;;;5014986;28;20041;-61
2021/10/01 03:57:10;;;;;;;7.93;5.00;;;10.40;95.40;;;;;;5015189;28;20198;-61
2021/10/01 03:59:35;;;;;;;10.80;5.10;;;10.40;95.40;;;;;;5015321;28;20065;-60
2021/10/01 04:02:01;;;;;;;8.88;6.30;;;10.40;95.50;;;;;;5014614;28;20502;-58
2021/10/01 04:04:27;;;;;;;7.88;6.07;;;10.20;95.60;;;;;;5015143;28;20042;-61
2021/10/01 04:06:52;;;;;;;7.50;5.60;;;10.20;95.70;;;;;;5015096;28;20151;-60
2021/10/01 04:09:18;;;;;;;9.73;5.78;;;10.20;95.70;;;;;;5029081;28;20042;-60
2021/10/01 04:11:44;;;;;;;8.82;4.68;;;10.10;95.90;;;;;;5035095;28;20116;-60
2021/10/01 04:14:09;;;;;;;6.70;4.90;;;10.10;95.90;;;;;;5033556;28;20037;-60
2021/10/01 04:16:35;;;;;;;9.45;5.03;;;10.10;95.90;;;;;;5033576;28;20558;-59
2021/10/01 04:19:00;;;;;;;5.35;4.47;;;10.10;95.80;;;;;;5034374;28;20151;-60
2021/10/01 04:21:26;;;;;;;7.70;4.40;;;10.10;96.00;;;;;;5020900;28;20069;-60
2021/10/01 04:23:52;;;;;;;6.40;4.80;;;10.10;96.00;;;;;;5013879;28;20034;-61
2021/10/01 04:26:18;;;;;;;11.27;6.82;;;10.10;96.10;;;;;;5028177;28;20041;-61
2021/10/01 04:28:44;;;;;;;8.07;6.13;;;10.10;96.10;;;;;;5032910;28;20109;-59
2021/10/01 04:31:10;;;;;;;11.70;6.47;;;10.10;96.00;;;;;;5032980;28;20088;-59
2021/10/01 04:33:39;;;;;;;9.02;5.22;;;10.10;96.10;;;;;;5031953;28;20037;-61
2021/10/01 04:36:04;;;;;;;5.93;4.32;;;10.10;96.00;;;;;;5034248;28;20025;-60
2021/10/01 04:38:30;;;;;;;8.95;4.70;;;10.10;96.00;;;;;;5049341;28;20052;-61
2021/10/01 04:40:56;;;;;;;8.55;4.90;;;10.10;96.00;;;;;;5033856;28;20029;-59
2021/10/01 04:43:22;;;;;;;9.70;4.60;;;10.20;95.90;;;;;;5049495;28;20068;-62
2021/10/01 04:45:47;;;;;;;8.05;4.32;;;10.30;95.90;;;;;;5049435;28;20029;-60
2021/10/01 04:48:13;;;;;;;11.10;4.63;;;10.30;95.80;;;;;;5034134;28;20030;-60
2021/10/01 04:50:38;;;;;;;8.60;4.25;;;10.30;95.60;;;;;;5034269;28;20033;-61
2021/10/01 04:53:04;;;;;;;6.03;4.13;;;10.30;95.90;;;;;;5021331;28;20505;-59
2021/10/01 04:55:34;;;;;;;11.25;4.70;;;10.30;95.70;;;;;;5014526;28;20402;-61
2021/10/01 04:58:05;;;;;;;10.43;4.97;;;10.20;95.50;;;;;;5014242;28;20034;-62
2021/10/01 05:00:31;;;;;;;6.70;4.38;;;10.20;95.60;;;;;;5014059;28;20030;-63
2021/10/01 05:02:56;;;;;;;6.65;4.55;;;10.20;95.60;;;;;;5011863;28;20037;-59
2021/10/01 05:05:22;;;;;;;5.95;4.40;;;10.20;95.60;;;;;;5033580;28;20033;-61
2021/10/01 05:07:48;;;;;;;5.68;4.03;;;10.20;95.60;;;;;;5032799;28;20030;-58
2021/10/01 05:10:13;;;;;;;9.27;6.28;;;10.20;95.70;;;;;;5032913;28;20036;-60
2021/10/01 05:12:40;;;;;;;6.60;5.00;;;10.20;95.60;;;;;;5033363;28;20084;-60
2021/10/01 05:15:07;;;;;;;10.55;4.78;;;10.20;95.60;;;;;;5032569;28;20025;-61
2021/10/01 05:17:35;;;;;;;6.97;4.65;;;10.20;95.50;;;;;;5033015;28;20037;-60
2021/10/01 05:20:02;;;;;;;10.52;7.57;;;10.20;95.40;;;;;;5029495;28;20040;-60
2021/10/01 05:22:28;;;;;;;9.23;5.28;;;10.30;95.30;;;;;;5013068;28;20553;-61
2021/10/01 05:24:53;;;;;;;7.43;4.07;;;10.20;95.40;;;;;;5013782;28;20216;-60
2021/10/01 05:27:19;;;;;;;5.95;4.15;;;10.30;95.40;;;;;;5014973;28;20038;-60
2021/10/01 05:29:45;;;;;;;7.25;4.15;;;10.20;95.40;;;;;;5033247;28;20033;-61
2021/10/01 05:32:11;;;;;;;23.63;11.40;;;10.20;95.50;;;;;;5026230;28;20053;-59
2021/10/01 05:34:37;;;;;;;10.27;6.65;;;10.30;95.40;;;;;;5024155;28;20026;-60
2021/10/01 05:37:03;;;;;;;9.45;6.32;;;10.30;95.50;;;;;;5032994;28;20037;-61
2021/10/01 05:39:29;;;;;;;7.75;5.70;;;10.30;95.40;;;;;;5032918;28;20619;-60
2021/10/01 05:41:55;;;;;;;8.75;5.43;;;10.40;95.30;;;;;;5032009;28;20048;-61
2021/10/01 05:44:21;;;;;;;12.80;5.55;;;10.50;95.30;;;;;;5032290;28;20037;-59
2021/10/01 05:46:47;;;;;;;14.25;6.43;;;10.50;95.30;;;;;;5029995;28;20026;-60
2021/10/01 05:49:20;;;;;;;6.30;4.85;;;10.50;95.10;;;;;;5016974;28;20036;-61
2021/10/01 05:51:51;;;;;;;7.65;4.28;;;10.50;95.10;;;;;;5014017;28;20030;-60
2021/10/01 05:54:23;;;;;;;7.85;4.97;;;10.50;95.00;;;;;;5032386;28;20440;-61
2021/10/01 05:56:54;;;;;;;9.23;4.70;;;10.60;95.00;;;;;;5031925;28;20405;-62
2021/10/01 05:59:21;;;;;;;9.13;4.40;;;10.50;95.10;;;;;;5032673;28;20439;-61
2021/10/01 06:01:48;;;;;;;7.30;4.57;;;10.50;95.20;;;;;;5021145;28;20061;-61
2021/10/01 06:04:14;;;;;;;6.20;4.25;;;10.60;95.00;;;;;;5012560;28;20121;-59
2021/10/01 06:06:40;;;;;;;11.13;4.93;;;10.60;94.90;;;;;;5011427;28;20037;-61
2021/10/01 06:09:11;;;;;;;8.27;4.30;;;10.50;95.00;;;;;;5012292;28;20026;-60
2021/10/01 06:11:39;;;;;;;5.90;4.35;;;10.50;95.10;;;;;;5015452;28;20033;-59
2021/10/01 06:14:06;;;;;;;9.85;4.03;;;10.60;95.00;;;;;;5012697;28;20075;-60
2021/10/01 06:16:32;;;;;;;7.38;4.18;;;10.60;94.80;;;;;;5011298;28;20034;-61
2021/10/01 06:18:57;;;;;;;5.38;4.05;;;10.70;94.80;;;;;;5011354;28;20030;-60
2021/10/01 06:21:23;;;;;;;4.60;3.78;;;10.70;94.70;;;;;;5023756;28;20088;-61
2021/10/01 06:23:48;;;;;;;9.70;4.97;;;10.90;94.50;;;;;;5030835;28;20136;-61
2021/10/01 06:26:14;;;;;;;8.02;4.82;;;10.90;94.30;;;;;;5032808;28;20122;-59
2021/10/01 06:28:39;;;;;;;6.10;4.07;;;10.90;94.30;;;;;;5031607;28;20034;-61
2021/10/01 06:31:05;;;;;;;7.78;4.63;;;10.90;94.20;;;;;;5031905;28;20045;-62
2021/10/01 06:33:31;;;;;;;6.32;4.15;;;11.00;94.20;;;;;;5031440;28;20029;-61
2021/10/01 06:35:57;;;;;;;4.93;3.90;;;10.90;94.20;;;;;;5031554;28;20034;-61
2021/10/01 06:38:23;;;;;;;7.22;4.78;;;11.00;94.20;;;;;;5032081;28;20079;-59
2021/10/01 06:40:49;;;;;;;8.95;4.90;;;11.10;94.00;;;;;;5030962;28;20077;-60
2021/10/01 06:43:17;;;;;;;5.18;3.80;;;11.20;93.90;;;;;;5030378;28;20493;-60
2021/10/01 06:45:44;;;;;;;7.82;4.30;;;11.20;93.80;;;;;;5031814;28;20477;-60
2021/10/01 07:21:30;;;;;;;16.58;5.00;;;12.60;93.30;;;;;;5024795;28;20397;-62
2021/10/01 07:34:24;;;;;;;9.48;5.45;;;12.40;92.40;;;;;;5015594;28;20457;-62
2021/10/01 08:20:43;;;;;;;5.88;3.47;;;13.60;91.90;;;;;;5025168;28;20396;-59
2021/10/01 08:23:10;;;;;;;8.10;3.22;;;13.70;91.70;;;;;;5036684;28;20045;-60
2021/10/01 08:25:36;;;;;;;6.28;3.33;;;13.80;91.60;;;;;;5031372;28;20030;-62
2021/10/01 08:28:05;;;;;;;6.20;3.97;;;13.90;91.80;;;;;;5012029;28;20409;-61
2021/10/01 08:30:41;;;;;;;5.88;3.70;;;14.10;93.70;;;;;;5020388;28;20017;-60
2021/10/01 08:33:07;;;;;;;6.13;3.67;;;14.40;92.30;;;;;;5013751;28;20056;-60
2021/10/01 08:35:32;;;;;;;4.95;3.50;;;14.60;91.70;;;;;;5022048;28;20049;-60
2021/10/01 08:37:59;;;;;;;5.82;3.25;;;14.70;91.40;;;;;;5015888;28;20041;-61
2021/10/01 08:40:26;;;;;;;4.63;3.30;;;14.90;91.00;;;;;;5034567;28;20040;-60
2021/10/01 08:42:53;;;;;;;6.32;3.53;;;15.00;90.90;;;;;;5021332;28;20073;-61
2021/10/01 08:45:21;;;;;;;4.75;3.25;;;15.30;90.30;;;;;;5013472;28;20026;-62
2021/10/01 08:47:48;;;;;;;7.85;3.13;;;15.30;90.30;;;;;;5015119;28;20038;-62
2021/10/01 08:50:17;;;;;;;5.53;3.35;;;15.40;89.20;;;;;;5013255;28;20034;-63
2021/10/01 08:52:43;;;;;;;7.32;3.53;;;15.50;88.80;;;;;;5014373;28;20099;-62
2021/10/01 08:55:10;;;;;;;8.13;3.72;;;15.60;88.70;;;;;;5015090;28;20610;-62
2021/10/01 08:57:36;;;;;;;9.80;4.35;;;15.70;87.80;;;;;;5014616;28;20119;-61
2021/10/01 09:00:06;;;;;;;13.13;4.70;;;15.70;87.50;;;;;;5014991;28;20241;-61
2021/10/01 09:02:32;;;;;;;14.40;7.57;;;15.80;88.00;;;;;;5014552;28;20033;-61
2021/10/01 09:04:58;;;;;;;6.95;3.40;;;15.80;87.30;;;;;;5014566;28;20080;-61
2021/10/01 09:07:25;;;;;;;5.38;3.40;;;16.00;87.30;;;;;;5015041;28;20117;-61
2021/10/01 09:09:53;;;;;;;6.90;4.00;;;16.20;87.80;;;;;;5021990;28;20038;-61
2021/10/01 09:12:19;;;;;;;7.32;3.90;;;16.20;87.80;;;;;;5034595;28;20068;-60
2021/10/01 09:14:52;;;;;;;7.88;3.28;;;16.30;87.10;;;;;;5033976;28;20033;-61
2021/10/01 09:17:20;;;;;;;6.15;3.05;;;16.20;86.70;;;;;;5034645;28;20050;-60
2021/10/01 09:19:47;;;;;;;5.50;3.25;;;16.30;86.70;;;;;;5033897;28;20430;-61
2021/10/01 09:22:36;;;;;;;4.80;3.33;;;16.20;86.60;;;;;;5033516;28;20369;-62
2021/10/01 09:25:12;;;;;;;7.80;3.50;;;16.30;85.40;;;;;;5021541;28;20508;-62
2021/10/01 09:27:41;;;;;;;7.65;3.72;;;16.00;85.30;;;;;;5015191;28;20030;-60
2021/10/01 09:30:08;;;;;;;7.15;3.05;;;15.70;86.00;;;;;;5021714;28;20124;-61
2021/10/01 09:32:34;;;;;;;6.63;3.22;;;15.60;87.00;;;;;;5033737;28;20040;-60
2021/10/01 09:35:10;;;;;;;6.05;3.67;;;15.70;87.40;;;;;;5032452;28;20052;-63
2021/10/01 09:37:36;;;;;;;17.70;9.40;;;15.80;88.20;;;;;;5034084;28;20033;-62
2021/10/01 09:40:04;;;;;;;12.50;4.97;;;15.80;87.90;;;;;;5015994;28;20038;-61
2021/10/01 09:42:54;;;;;;;6.70;3.60;;;15.80;86.80;;;;;;5031591;28;20433;-67
2021/10/01 09:45:20;;;;;;;9.13;3.83;;;15.70;87.40;;;;;;5033432;28;20033;-61
2021/10/01 09:47:50;;;;;;;5.30;3.38;;;15.80;86.50;;;;;;5033739;28;20087;-61
2021/10/01 09:50:20;;;;;;;10.45;3.60;;;15.90;87.40;;;;;;5033363;28;20029;-61
2021/10/01 09:52:50;;;;;;;11.15;3.10;;;16.00;88.70;;;;;;5033494;28;20049;-60
2021/10/01 09:55:22;;;;;;;8.00;3.30;;;16.30;87.70;;;;;;5033237;28;20064;-61
2021/10/01 09:58:12;;;;;;;6.43;3.53;;;16.40;86.60;;;;;;5032245;28;20033;-63
2021/10/01 10:00:48;;;;;;;6.28;3.20;;;16.40;87.40;;;;;;5033052;28;20033;-60
2021/10/01 10:03:30;;;;;;;8.15;4.20;;;16.60;86.20;;;;;;5032923;28;20511;-61
2021/10/01 10:06:07;;;;;;;8.80;4.18;;;16.70;86.70;;;;;;5033120;28;20428;-61
2021/10/01 10:08:36;;;;;;;8.40;4.85;;;16.90;86.30;;;;;;5033572;28;20112;-61
2021/10/01 10:11:04;;;;;;;5.22;3.15;;;16.90;84.90;;;;;;5033169;28;20548;-60
2021/10/01 10:13:40;;;;;;;7.38;3.63;;;16.80;85.20;;;;;;5033417;28;20511;-61
2021/10/01 10:16:19;;;;;;;7.38;3.35;;;16.90;86.20;;;;;;5048578;28;20408;-62
2021/10/01 10:18:48;;;;;;;5.43;3.20;;;16.90;85.00;;;;;;5032969;28;20022;-61
2021/10/01 10:21:14;;;;;;;6.05;3.47;;;16.90;85.80;;;;;;5019792;28;20045;-62
2021/10/01 10:23:40;;;;;;;10.40;3.13;;;17.10;85.20;;;;;;5012736;28;20113;-61
2021/10/01 10:26:06;;;;;;;6.47;3.55;;;17.00;84.90;;;;;;5012905;28;20038;-60
2021/10/01 10:28:33;;;;;;;6.95;3.55;;;17.10;84.50;;;;;;5012949;28;20022;-61
2021/10/01 10:30:59;;;;;;;9.15;3.30;;;17.00;85.50;;;;;;5012871;28;20026;-61
2021/10/01 10:33:39;;;;;;;7.30;3.05;;;17.20;85.30;;;;;;5013337;28;20513;-61
2021/10/01 10:36:37;;;;;;;6.03;3.25;;;17.30;84.40;;;;;;5023752;28;20500;-62
2021/10/01 10:39:12;;;;;;;9.30;3.42;;;17.30;84.60;;;;;;5032799;28;20119;-62
2021/10/01 10:41:40;;;;;;;8.95;3.78;;;17.40;85.30;;;;;;5031668;28;20033;-60
2021/10/01 10:44:06;;;;;;;10.82;3.95;;;17.40;84.40;;;;;;5032830;28;20516;-61
2021/10/01 10:46:34;;;;;;;7.07;3.10;;;17.50;83.70;;;;;;5032575;28;20068;-62
2021/10/01 10:49:16;;;;;;;6.15;3.40;;;17.70;82.80;;;;;;5032274;28;20556;-61
2021/10/01 10:52:08;;;;;;;10.40;4.25;;;17.70;83.40;;;;;;5031479;28;20032;-61
2021/10/01 10:54:38;;;;;;;10.30;4.18;;;17.60;84.30;;;;;;5032355;28;20032;-61
2021/10/01 10:57:21;;;;;;;6.47;3.95;;;17.70;84.00;;;;;;5031431;28;20055;-61
2021/10/01 11:00:01;;;;;;;5.80;3.38;;;17.80;83.50;;;;;;5031458;28;20037;-62
2021/10/01 11:02:41;;;;;;;5.00;3.20;;;17.80;83.20;;;;;;5031924;28;20037;-61
2021/10/01 11:05:26;;;;;;;8.25;3.17;;;17.50;82.90;;;;;;5032677;28;20030;-61
2021/10/01 11:07:57;;;;;;;7.50;3.17;;;17.60;81.60;;;;;;5032268;28;20034;-62
2021/10/01 11:10:46;;;;;;;7.65;3.10;;;17.60;81.40;;;;;;5032323;28;20085;-61
2021/10/01 11:13:24;;;;;;;4.55;2.72;;;17.70;80.50;;;;;;5032164;28;20034;-60
2021/10/01 11:18:53;;;;;;;5.77;2.80;;;17.50;80.70;;;;;;5026759;28;20076;-59
2021/10/01 11:21:34;;;;;;;6.63;3.17;;;17.60;81.30;;;;;;5020630;28;20044;-59
2021/10/01 11:24:10;;;;;;;4.80;2.97;;;17.70;81.60;;;;;;5032502;28;20087;-61
2021/10/01 11:26:56;;;;;;;7.65;3.17;;;17.80;81.00;;;;;;5031519;28;20053;-61
2021/10/01 11:29:32;;;;;;;4.80;2.67;;;17.90;81.30;;;;;;5031444;28;20030;-60
2021/10/01 11:32:06;;;;;;;4.93;2.88;;;18.00;80.20;;;;;;5032987;28;20037;-62
2021/10/01 11:34:48;;;;;;;7.35;3.13;;;18.00;80.80;;;;;;5031800;28;20041;-62
2021/10/01 11:37:36;;;;;;;7.70;3.05;;;18.00;80.70;;;;;;5012568;28;20049;-60
2021/10/01 11:40:07;;;;;;;5.82;2.97;;;18.00;81.20;;;;;;5012979;28;20036;-61
2021/10/01 11:42:39;;;;;;;6.70;2.83;;;18.20;80.80;;;;;;5013622;28;20121;-62
2021/10/01 11:45:14;;;;;;;8.82;3.63;;;18.30;81.30;;;;;;5014860;28;20030;-60
2021/10/01 11:47:53;;;;;;;4.90;3.30;;;18.60;79.60;;;;;;5016306;28;20164;-60
2021/10/01 11:50:30;;;;;;;5.47;3.10;;;18.50;80.20;;;;;;5016589;28;20531;-61
2021/10/01 11:52:58;;;;;;;8.48;3.63;;;18.70;79.20;;;;;;5015617;28;20371;-61
2021/10/01 11:55:25;;;;;;;6.78;3.45;;;18.50;79.10;;;;;;5016240;28;20393;-62
2021/10/01 11:57:51;;;;;;;5.97;3.33;;;18.40;79.30;;;;;;5015880;28;20022;-63
2021/10/01 12:00:18;;;;;;;7.18;4.07;;;18.60;80.00;;;;;;5015704;28;20041;-62
2021/10/01 12:02:47;;;;;;;6.55;3.85;;;18.60;79.10;;;;;;5014296;28;20069;-62
2021/10/01 12:05:24;;;;;;;7.35;4.10;;;18.60;78.20;;;;;;5015902;28;20108;-62
2021/10/01 12:07:59;;;;;;;5.47;3.65;;;18.60;78.60;;;;;;5015773;28;20030;-62
2021/10/01 12:10:26;;;;;;;4.90;3.38;;;18.50;78.80;;;;;;5027733;28;20132;-61
2021/10/01 12:12:58;;;;;;;5.63;3.22;;;18.60;79.40;;;;;;5035448;28;20128;-61
2021/10/01 12:16:00;;;;;;;5.38;3.17;;;18.70;79.30;;;;;;5035130;28;20084;-62
2021/10/01 12:18:26;;;;;;;3.92;3.10;;;18.60;78.40;;;;;;5023210;28;20112;-63
2021/10/01 12:20:52;;;;;;;6.13;3.22;;;18.80;78.60;;;;;;5034251;28;20025;-63
2021/10/01 12:23:21;;;;;;;6.18;3.38;;;19.00;78.20;;;;;;5033560;28;20029;-62
2021/10/01 12:25:47;;;;;;;5.78;3.17;;;19.00;77.30;;;;;;5035315;28;20040;-63
2021/10/01 12:28:12;;;;;;;3.95;2.80;;;19.00;76.80;;;;;;5034703;28;20112;-61
2021/10/01 12:30:38;;;;;;;7.03;3.30;;;19.00;76.60;;;;;;5034548;28;20068;-62
2021/10/01 12:33:04;;;;;;;4.60;3.20;;;19.10;76.80;;;;;;5034925;28;20392;-62
2021/10/01 12:35:30;;;;;;;5.60;3.40;;;19.10;77.40;;;;;;5028632;28;20030;-60
2021/10/01 12:37:55;;;;;;;6.93;3.33;;;19.20;77.90;;;;;;5014701;28;20445;-61
2021/10/01 12:40:21;;;;;;;6.40;3.10;;;19.40;77.50;;;;;;5033962;28;20484;-62
2021/10/01 12:42:51;;;;;;;6.15;3.30;;;19.60;77.90;;;;;;5033472;28;20038;-62
2021/10/01 12:45:19;;;;;;;6.47;2.83;;;19.80;76.20;;;;;;5034980;28;20022;-62
2021/10/01 12:47:48;;;;;;;7.75;3.58;;;19.70;75.70;;;;;;5034479;28;20151;-60
2021/10/01 12:50:21;;;;;;;6.93;3.08;;;19.80;75.50;;;;;;5033732;28;20037;-62
2021/10/01 12:52:58;;;;;;;5.43;3.20;;;19.70;74.90;;;;;;5034658;28;20095;-61
2021/10/01 12:55:24;;;;;;;4.70;2.80;;;19.80;74.20;;;;;;5033640;28;20034;-62
2021/10/01 12:57:51;;;;;;;3.83;2.40;;;19.70;74.40;;;;;;5015579;28;20056;-62
2021/10/01 13:00:16;;;;;;;10.18;3.58;;;19.80;74.60;;;;;;5014495;28;20392;-61
2021/10/01 13:02:52;;;;;;;6.63;2.90;;;20.00;74.20;;;;;;5014099;28;20036;-62
2021/10/01 13:05:21;;;;;;;5.90;2.45;;;20.20;73.60;;;;;;5014567;28;20417;-61
2021/10/01 13:07:56;;;;;;;6.57;2.80;;;20.20;73.70;;;;;;5014720;28;20121;-62
2021/10/01 13:10:28;;;;;;;5.00;2.38;;;20.40;73.20;;;;;;5025072;28;20029;-61
2021/10/01 13:13:08;;;;;;;4.88;2.63;;;20.50;72.40;;;;;;5034270;28;20056;-61
2021/10/01 13:15:36;;;;;;;6.65;3.50;;;20.60;72.30;;;;;;5033580;28;20400;-62
2021/10/01 13:18:05;;;;;;;3.97;2.70;;;20.60;70.50;;;;;;5034163;28;20029;-61
2021/10/01 13:20:33;;;;;;;2.97;2.40;;;20.60;71.80;;;;;;5034637;28;20021;-63
2021/10/01 13:23:08;;;;;;;5.63;2.70;;;20.70;71.30;;;;;;5033796;28;20038;-61
2021/10/01 13:25:36;;;;;;;6.63;2.38;;;20.90;72.20;;;;;;5031256;28;20470;-61
2021/10/01 13:28:06;;;;;;;4.53;2.50;;;21.00;70.20;;;;;;5049175;28;20124;-60
2021/10/01 13:30:33;;;;;;;6.57;2.70;;;21.10;71.20;;;;;;5033481;28;20033;-63
2021/10/01 13:32:59;;;;;;;6.15;2.80;;;21.40;70.10;;;;;;5033515;28;20029;-62
2021/10/01 13:35:26;;;;;;;2.83;2.20;;;21.60;69.80;;;;;;5027913;28;20033;-62
2021/10/01 13:37:51;;;;;;;4.97;2.97;;;21.70;69.70;;;;;;5013679;28;20117;-61
2021/10/01 13:40:17;;;;;;;4.38;2.38;;;21.80;70.00;;;;;;5013765;28;20098;-62
2021/10/01 13:42:43;;;;;;;4.68;2.30;;;21.80;68.40;;;;;;5013702;28;20476;-61
2021/10/01 13:45:11;;;;;;;4.10;2.40;;;21.70;69.70;;;;;;5013941;28;20025;-62
2021/10/01 13:47:37;;;;;;;7.20;2.70;;;22.00;69.70;;;;;;5013670;28;20022;-62
2021/10/01 13:50:05;;;;;;;5.53;4.28;;;22.10;68.70;;;;;;5013418;28;20505;-61
2021/10/01 13:52:31;;;;;;;5.55;3.50;;;22.20;68.40;;;;;;5013167;28;20547;-61
2021/10/01 13:54:57;;;;;;;7.47;3.60;;;22.30;67.40;;;;;;5016882;28;20120;-62
2021/10/01 13:57:22;;;;;;;4.60;3.00;;;22.30;67.40;;;;;;5008355;28;20038;-61
2021/10/01 13:59:51;;;;;;;5.25;3.10;;;22.10;67.00;;;;;;5021616;28;20554;-62
2021/10/01 14:02:17;;;;;;;5.68;2.67;;;22.00;66.60;;;;;;5023295;28;20437;-61
2021/10/01 14:04:42;;;;;;;8.60;3.15;;;21.90;66.80;;;;;;5019954;28;20049;-61
2021/10/01 14:07:08;;;;;;;7.57;3.20;;;21.90;67.60;;;;;;5021440;28;20096;-57
2021/10/01 14:09:33;;;;;;;5.57;2.90;;;22.00;66.20;;;;;;5023382;28;20025;-58
2021/10/01 14:11:59;;;;;;;7.07;3.42;;;21.80;66.60;;;;;;5021156;28;20116;-59
2021/10/01 14:14:24;;;;;;;7.85;4.55;;;21.90;67.30;;;;;;5020599;28;20061;-59
2021/10/01 14:16:50;;;;;;;6.20;3.70;;;22.20;66.40;;;;;;5022591;28;20558;-60
2021/10/01 14:19:15;;;;;;;8.52;4.50;;;22.20;66.80;;;;;;5015648;28;20029;-59
2021/10/01 14:21:41;;;;;;;4.15;3.00;;;22.40;67.00;;;;;;5027304;28;20037;-60
2021/10/01 14:24:07;;;;;;;6.28;4.35;;;22.50;66.20;;;;;;5023957;28;20069;-60
2021/10/01 14:26:33;;;;;;;10.00;6.45;;;22.70;66.70;;;;;;5025412;28;20037;-58